Thunder radar more information blitzortung!


Radar de pluja more information rain snow radar


Visita la nostra xarxa de llocs de meteo:

Template documentation
and downloads

And another site



No particular awareness of the weather is required.    There are no Weather-warnings

Pagina Historial Weather Underground text

Diari Resum Juliol 2, 2017 Unitats:  Tant    Imperial   Mètric
« Previous Dia
SegĂźent Dia »
Diari Setmana Mensual Anual Personalitzada
  Maxima: Minima: Media:
Temperatura: TemperatureC °F /  -17.8 °C 16.9 °F /  -8.4 °C 25.1 °F /  -3.8 °C
Punt de rosada: DewpointC °F /  -17.8 °C 5.9 °F /  -14.5 °C 9 °F /  -12.8 °C
Humitat: Humidity % 25 % 38 %
Wind Speed: WindSpeedKMH mph /  0 km/h - 6.7 mph /  10.8 km/h
RĂ fegues de vent: WindSpeedGustKMH mph /  0 km/h - -
Vent:- - SSE
Pression baro: PressurehPa in /  0 hPa 1017.8 in /  34462.7 hPa -
Precipitacions: 0.0 in /  0 mm    
Historical Graphs
 
 
Dades de taula per Juliol 2, 2017
Temps Temperatura Punt de rosada Pression baro Vent Wind Speed RĂ fegues de vent Humitat Rainfall Rate (Hourly)
TemperatureC °F /  -17.8 °C DewpointC °F /  -17.8 °C PressurehPa in /  0 hPa Calm     Humidity % HourlyPrecipMM in /  0 mm
00:03 19.0 °F /  -7.2 °C 8.1 °F /  -13.3 °C 1019.9 in /  34533.8 hPa Calm     49 % 0.0 in /  0 mm
00:08 18.9 °F /  -7.3 °C 8.2 °F /  -13.2 °C 1019.9 in /  34533.8 hPa WNW 2.3 mph /  3.7 km/h   50 % 0.0 in /  0 mm
00:13 18.8 °F /  -7.3 °C 8.2 °F /  -13.2 °C 1020.9 in /  34567.7 hPa Calm     50 % 0.0 in /  0 mm
05:25 20.5 °F /  -6.4 °C 9.1 °F /  -12.7 °C 1021.9 in /  34601.5 hPa NE 4.8 mph /  7.7 km/h 6.4 mph /  10.3 km/h 48 % 0.0 in /  0 mm
05:35 21.6 °F /  -5.8 °C 9.8 °F /  -12.3 °C 1021.9 in /  34601.5 hPa NE 3.2 mph /  5.1 km/h 6.4 mph /  10.3 km/h 47 % 0.0 in /  0 mm
10:42 21.7 °F /  -5.7 °C 9.9 °F /  -12.3 °C 1021.9 in /  34601.5 hPa NNE 5.6 mph /  9 km/h 5.6 mph /  9 km/h 47 % 0.0 in /  0 mm
10:47 21.6 °F /  -5.8 °C 9.8 °F /  -12.3 °C 1020.9 in /  34567.7 hPa East 7.4 mph /  11.9 km/h 7.4 mph /  11.9 km/h 47 % 0.0 in /  0 mm
10:52 21.7 °F /  -5.7 °C 9.6 °F /  -12.4 °C 1020.9 in /  34567.7 hPa NE 9.3 mph /  15 km/h 9.3 mph /  15 km/h 46 % 0.0 in /  0 mm
10:57 21.9 °F /  -5.6 °C 9.8 °F /  -12.3 °C 1020.9 in /  34567.7 hPa NW 9.3 mph /  15 km/h 9.3 mph /  15 km/h 46 % 0.0 in /  0 mm
11:02 22.0 °F /  -5.6 °C 9.5 °F /  -12.5 °C 1020.9 in /  34567.7 hPa NW 7.4 mph /  11.9 km/h 7.4 mph /  11.9 km/h 45 % 0.0 in /  0 mm
11:07 22.1 °F /  -5.5 °C 9.6 °F /  -12.4 °C 1020.9 in /  34567.7 hPa ESE 6.1 mph /  9.8 km/h 6.1 mph /  9.8 km/h 45 % 0.0 in /  0 mm
11:13 22.5 °F /  -5.3 °C 9.9 °F /  -12.3 °C 1020.9 in /  34567.7 hPa North 6.1 mph /  9.8 km/h 6.1 mph /  9.8 km/h 45 % 0.0 in /  0 mm
11:17 22.9 °F /  -5.1 °C 10.3 °F /  -12.1 °C 1020.9 in /  34567.7 hPa WNW 3.7 mph /  6 km/h 3.7 mph /  6 km/h 45 % 0.0 in /  0 mm
11:22 23.0 °F /  -5 °C 10.1 °F /  -12.2 °C 1020.9 in /  34567.7 hPa NE 9.0 mph /  14.5 km/h 9.0 mph /  14.5 km/h 44 % 0.0 in /  0 mm
11:27 23.0 °F /  -5 °C 10.1 °F /  -12.2 °C 1020.9 in /  34567.7 hPa NNE 9.5 mph /  15.3 km/h 9.5 mph /  15.3 km/h 44 % 0.0 in /  0 mm
11:32 23.0 °F /  -5 °C 10.1 °F /  -12.2 °C 1020.9 in /  34567.7 hPa NNE 9.3 mph /  15 km/h 9.3 mph /  15 km/h 44 % 0.0 in /  0 mm
11:33 23.0 °F /  -5 °C 10.1 °F /  -12.2 °C 1020.9 in /  34567.7 hPa NE 9.5 mph /  15.3 km/h 9.5 mph /  15.3 km/h 44 % 0.0 in /  0 mm
11:38 23.0 °F /  -5 °C 9.7 °F /  -12.4 °C 1020.9 in /  34567.7 hPa NNE 9.3 mph /  15 km/h 9.3 mph /  15 km/h 43 % 0.0 in /  0 mm
11:43 23.4 °F /  -4.8 °C 10.1 °F /  -12.2 °C 1020.9 in /  34567.7 hPa NNE 11.1 mph /  17.9 km/h 11.1 mph /  17.9 km/h 43 % 0.0 in /  0 mm
11:48 23.5 °F /  -4.7 °C 9.8 °F /  -12.3 °C 1020.9 in /  34567.7 hPa ESE 7.4 mph /  11.9 km/h 7.4 mph /  11.9 km/h 42 % 0.0 in /  0 mm
11:53 23.9 °F /  -4.5 °C 10.6 °F /  -11.9 °C 1020.9 in /  34567.7 hPa ENE 7.4 mph /  11.9 km/h 7.4 mph /  11.9 km/h 43 % 0.0 in /  0 mm
11:58 24.0 °F /  -4.4 °C 10.3 °F /  -12.1 °C 1020.9 in /  34567.7 hPa WSW 4.2 mph /  6.8 km/h 4.2 mph /  6.8 km/h 42 % 0.0 in /  0 mm
12:03 24.4 °F /  -4.2 °C 10.7 °F /  -11.8 °C 1020.9 in /  34567.7 hPa NE 9.3 mph /  15 km/h 9.3 mph /  15 km/h 42 % 0.0 in /  0 mm
12:08 24.4 °F /  -4.2 °C 10.7 °F /  -11.8 °C 1020.9 in /  34567.7 hPa NE 5.0 mph /  8 km/h 5.0 mph /  8 km/h 42 % 0.0 in /  0 mm
12:13 24.4 °F /  -4.2 °C 10.3 °F /  -12.1 °C 1019.9 in /  34533.8 hPa NE 11.1 mph /  17.9 km/h 11.1 mph /  17.9 km/h 41 % 0.0 in /  0 mm
12:18 24.6 °F /  -4.1 °C 10.4 °F /  -12 °C 1019.9 in /  34533.8 hPa East 10.3 mph /  16.6 km/h 10.3 mph /  16.6 km/h 41 % 0.0 in /  0 mm
12:23 24.2 °F /  -4.3 °C 9.7 °F /  -12.4 °C 1019.9 in /  34533.8 hPa East 9.3 mph /  15 km/h 9.3 mph /  15 km/h 40 % 0.0 in /  0 mm
12:28 25.1 °F /  -3.8 °C 10.6 °F /  -11.9 °C 1019.9 in /  34533.8 hPa NW 7.4 mph /  11.9 km/h 7.4 mph /  11.9 km/h 40 % 0.0 in /  0 mm
12:33 26.3 °F /  -3.2 °C 11.2 °F /  -11.6 °C 1019.9 in /  34533.8 hPa ESE 5.3 mph /  8.5 km/h 5.3 mph /  8.5 km/h 39 % 0.0 in /  0 mm
12:38 26.8 °F /  -2.9 °C 11.7 °F /  -11.3 °C 1019.9 in /  34533.8 hPa SSW 3.7 mph /  6 km/h 3.7 mph /  6 km/h 39 % 0.0 in /  0 mm
12:43 27.4 °F /  -2.6 °C 11.8 °F /  -11.2 °C 1020.9 in /  34567.7 hPa South 6.1 mph /  9.8 km/h 6.1 mph /  9.8 km/h 38 % 0.0 in /  0 mm
12:48 27.3 °F /  -2.6 °C 11.3 °F /  -11.5 °C 1020.9 in /  34567.7 hPa SW 5.3 mph /  8.5 km/h 5.3 mph /  8.5 km/h 37 % 0.0 in /  0 mm
12:53 27.6 °F /  -2.4 °C 11.6 °F /  -11.3 °C 1020.9 in /  34567.7 hPa NNW 9.3 mph /  15 km/h 9.3 mph /  15 km/h 37 % 0.0 in /  0 mm
12:58 27.3 °F /  -2.6 °C 10.9 °F /  -11.7 °C 1019.9 in /  34533.8 hPa SW 7.4 mph /  11.9 km/h 7.4 mph /  11.9 km/h 36 % 0.0 in /  0 mm
13:03 27.5 °F /  -2.5 °C 10.7 °F /  -11.8 °C 1019.9 in /  34533.8 hPa SW 9.3 mph /  15 km/h 9.3 mph /  15 km/h 35 % 0.0 in /  0 mm
13:08 27.5 °F /  -2.5 °C 10.7 °F /  -11.8 °C 1019.9 in /  34533.8 hPa WNW 6.9 mph /  11.1 km/h 6.9 mph /  11.1 km/h 35 % 0.0 in /  0 mm
13:13 27.5 °F /  -2.5 °C 10.2 °F /  -12.1 °C 1019.9 in /  34533.8 hPa SW 5.3 mph /  8.5 km/h 5.3 mph /  8.5 km/h 34 % 0.0 in /  0 mm
13:18 27.7 °F /  -2.4 °C 9.9 °F /  -12.3 °C 1019.9 in /  34533.8 hPa West 11.1 mph /  17.9 km/h 11.1 mph /  17.9 km/h 33 % 0.0 in /  0 mm
13:23 27.7 °F /  -2.4 °C 9.5 °F /  -12.5 °C 1019.9 in /  34533.8 hPa SSW 9.3 mph /  15 km/h 9.3 mph /  15 km/h 32 % 0.0 in /  0 mm
13:28 28.0 °F /  -2.2 °C 9.3 °F /  -12.6 °C 1019.9 in /  34533.8 hPa SSW 7.4 mph /  11.9 km/h 7.4 mph /  11.9 km/h 31 % 0.0 in /  0 mm
13:33 28.0 °F /  -2.2 °C 9.3 °F /  -12.6 °C 1019.9 in /  34533.8 hPa ENE 7.4 mph /  11.9 km/h 7.4 mph /  11.9 km/h 31 % 0.0 in /  0 mm
13:38 28.1 °F /  -2.2 °C 8.9 °F /  -12.8 °C 1019.9 in /  34533.8 hPa West 9.3 mph /  15 km/h 9.3 mph /  15 km/h 30 % 0.0 in /  0 mm
13:43 28.6 °F /  -1.9 °C 9.3 °F /  -12.6 °C 1019.9 in /  34533.8 hPa West 8.7 mph /  14 km/h 8.7 mph /  14 km/h 30 % 0.0 in /  0 mm
13:48 28.6 °F /  -1.9 °C 9.3 °F /  -12.6 °C 1019.9 in /  34533.8 hPa WSW 7.4 mph /  11.9 km/h 7.4 mph /  11.9 km/h 30 % 0.0 in /  0 mm
13:53 28.3 °F /  -2.1 °C 8.6 °F /  -13 °C 1019.9 in /  34533.8 hPa ESE 7.4 mph /  11.9 km/h 7.4 mph /  11.9 km/h 29 % 0.0 in /  0 mm
13:58 28.5 °F /  -1.9 °C 9.2 °F /  -12.7 °C 1019.9 in /  34533.8 hPa NE 6.4 mph /  10.3 km/h 6.4 mph /  10.3 km/h 30 % 0.0 in /  0 mm
14:03 28.9 °F /  -1.7 °C 9.1 °F /  -12.7 °C 1019.9 in /  34533.8 hPa West 5.6 mph /  9 km/h 5.6 mph /  9 km/h 29 % 0.0 in /  0 mm
14:08 28.6 °F /  -1.9 °C 8.8 °F /  -12.9 °C 1019.9 in /  34533.8 hPa West 7.4 mph /  11.9 km/h 7.4 mph /  11.9 km/h 29 % 0.0 in /  0 mm
14:13 29.1 °F /  -1.6 °C 8.7 °F /  -12.9 °C 1019.9 in /  34533.8 hPa WSW 9.3 mph /  15 km/h 9.3 mph /  15 km/h 28 % 0.0 in /  0 mm
14:18 29.2 °F /  -1.6 °C 8.8 °F /  -12.9 °C 1019.9 in /  34533.8 hPa SW 7.4 mph /  11.9 km/h 7.4 mph /  11.9 km/h 28 % 0.0 in /  0 mm
14:23 29.5 °F /  -1.4 °C 9.1 °F /  -12.7 °C 1019.9 in /  34533.8 hPa SSW 5.6 mph /  9 km/h 5.6 mph /  9 km/h 28 % 0.0 in /  0 mm
14:28 29.8 °F /  -1.2 °C 8.8 °F /  -12.9 °C 1018.8 in /  34496.6 hPa West 5.6 mph /  9 km/h 5.6 mph /  9 km/h 27 % 0.0 in /  0 mm
14:33 29.3 °F /  -1.5 °C 8.4 °F /  -13.1 °C 1018.8 in /  34496.6 hPa South 3.7 mph /  6 km/h 3.7 mph /  6 km/h 27 % 0.0 in /  0 mm
14:38 29.4 °F /  -1.4 °C 8.4 °F /  -13.1 °C 1018.8 in /  34496.6 hPa ENE 7.4 mph /  11.9 km/h 7.4 mph /  11.9 km/h 27 % 0.0 in /  0 mm
14:43 29.6 °F /  -1.3 °C 8.6 °F /  -13 °C 1019.9 in /  34533.8 hPa SW 9.0 mph /  14.5 km/h 9.0 mph /  14.5 km/h 27 % 0.0 in /  0 mm
14:48 29.9 °F /  -1.2 °C 8.9 °F /  -12.8 °C 1019.9 in /  34533.8 hPa SSW 9.3 mph /  15 km/h 9.3 mph /  15 km/h 27 % 0.0 in /  0 mm
14:53 28.8 °F /  -1.8 °C 8.4 °F /  -13.1 °C 1019.9 in /  34533.8 hPa WSW 5.3 mph /  8.5 km/h 5.3 mph /  8.5 km/h 28 % 0.0 in /  0 mm
14:58 29.2 °F /  -1.6 °C 8.3 °F /  -13.2 °C 1019.9 in /  34533.8 hPa South 5.6 mph /  9 km/h 5.6 mph /  9 km/h 27 % 0.0 in /  0 mm
15:01 29.8 °F /  -1.2 °C 8.8 °F /  -12.9 °C 1019.9 in /  34533.8 hPa WSW 6.1 mph /  9.8 km/h 6.1 mph /  9.8 km/h 27 % 0.0 in /  0 mm
15:06 29.1 °F /  -1.6 °C 8.2 °F /  -13.2 °C 1019.9 in /  34533.8 hPa SW 7.4 mph /  11.9 km/h 7.4 mph /  11.9 km/h 27 % 0.0 in /  0 mm
15:11 29.6 °F /  -1.3 °C 8.6 °F /  -13 °C 1019.9 in /  34533.8 hPa WSW 5.6 mph /  9 km/h 5.6 mph /  9 km/h 27 % 0.0 in /  0 mm
15:16 30.4 °F /  -0.9 °C 9.3 °F /  -12.6 °C 1019.9 in /  34533.8 hPa WNW 9.3 mph /  15 km/h 9.3 mph /  15 km/h 27 % 0.0 in /  0 mm
15:21 30.7 °F /  -0.7 °C 9.0 °F /  -12.8 °C 1019.9 in /  34533.8 hPa SW 6.4 mph /  10.3 km/h 6.4 mph /  10.3 km/h 26 % 0.0 in /  0 mm
15:26 30.1 °F /  -1.1 °C 8.5 °F /  -13.1 °C 1018.8 in /  34496.6 hPa ENE 9.3 mph /  15 km/h 9.3 mph /  15 km/h 26 % 0.0 in /  0 mm
15:31 30.5 °F /  -0.8 °C 8.8 °F /  -12.9 °C 1018.8 in /  34496.6 hPa SSE 7.4 mph /  11.9 km/h 7.4 mph /  11.9 km/h 26 % 0.0 in /  0 mm
15:36 29.8 °F /  -1.2 °C 8.2 °F /  -13.2 °C 1018.8 in /  34496.6 hPa South 5.6 mph /  9 km/h 5.6 mph /  9 km/h 26 % 0.0 in /  0 mm
15:41 30.4 °F /  -0.9 °C 9.3 °F /  -12.6 °C 1018.8 in /  34496.6 hPa West 11.1 mph /  17.9 km/h 11.1 mph /  17.9 km/h 27 % 0.0 in /  0 mm
15:46 30.7 °F /  -0.7 °C 9.0 °F /  -12.8 °C 1018.8 in /  34496.6 hPa SW 5.6 mph /  9 km/h 5.6 mph /  9 km/h 26 % 0.0 in /  0 mm
15:51 30.7 °F /  -0.7 °C 9.0 °F /  -12.8 °C 1018.8 in /  34496.6 hPa North 3.7 mph /  6 km/h 3.7 mph /  6 km/h 26 % 0.0 in /  0 mm
15:56 31.0 °F /  -0.6 °C 8.7 °F /  -12.9 °C 1018.8 in /  34496.6 hPa North 7.4 mph /  11.9 km/h 7.4 mph /  11.9 km/h 25 % 0.0 in /  0 mm
16:01 31.2 °F /  -0.4 °C 9.4 °F /  -12.6 °C 1018.8 in /  34496.6 hPa WSW 9.3 mph /  15 km/h 9.3 mph /  15 km/h 26 % 0.0 in /  0 mm
16:06 31.3 °F /  -0.4 °C 9.5 °F /  -12.5 °C 1018.8 in /  34496.6 hPa West 7.4 mph /  11.9 km/h 7.4 mph /  11.9 km/h 26 % 0.0 in /  0 mm
16:11 31.1 °F /  -0.5 °C 8.7 °F /  -12.9 °C 1018.8 in /  34496.6 hPa WSW 9.3 mph /  15 km/h 9.3 mph /  15 km/h 25 % 0.0 in /  0 mm
16:16 31.4 °F /  -0.3 °C 9.6 °F /  -12.4 °C 1018.8 in /  34496.6 hPa West 14.8 mph /  23.8 km/h 14.8 mph /  23.8 km/h 26 % 0.0 in /  0 mm
16:21 31.5 °F /  -0.3 °C 9.7 °F /  -12.4 °C 1018.8 in /  34496.6 hPa West 7.9 mph /  12.7 km/h 7.9 mph /  12.7 km/h 26 % 0.0 in /  0 mm
16:26 31.7 °F /  -0.2 °C 9.8 °F /  -12.3 °C 1018.8 in /  34496.6 hPa SW 9.3 mph /  15 km/h 9.3 mph /  15 km/h 26 % 0.0 in /  0 mm
16:31 30.6 °F /  -0.8 °C 8.9 °F /  -12.8 °C 1018.8 in /  34496.6 hPa SW 6.1 mph /  9.8 km/h 6.1 mph /  9.8 km/h 26 % 0.0 in /  0 mm
16:36 31.0 °F /  -0.6 °C 9.2 °F /  -12.7 °C 1018.8 in /  34496.6 hPa SW 5.6 mph /  9 km/h 5.6 mph /  9 km/h 26 % 0.0 in /  0 mm
16:41 30.5 °F /  -0.8 °C 8.8 °F /  -12.9 °C 1017.8 in /  34462.7 hPa SW 13.0 mph /  20.9 km/h 13.0 mph /  20.9 km/h 26 % 0.0 in /  0 mm
16:42 30.5 °F /  -0.8 °C 8.8 °F /  -12.9 °C 1017.8 in /  34462.7 hPa SSW 16.9 mph /  27.2 km/h 16.9 mph /  27.2 km/h 26 % 0.0 in /  0 mm
16:47 30.5 °F /  -0.8 °C 8.8 °F /  -12.9 °C 1017.8 in /  34462.7 hPa SSW 7.4 mph /  11.9 km/h 7.4 mph /  11.9 km/h 26 % 0.0 in /  0 mm
16:52 30.5 °F /  -0.8 °C 8.8 °F /  -12.9 °C 1017.8 in /  34462.7 hPa SW 7.4 mph /  11.9 km/h 7.4 mph /  11.9 km/h 26 % 0.0 in /  0 mm
16:57 31.0 °F /  -0.6 °C 9.2 °F /  -12.7 °C 1017.8 in /  34462.7 hPa West 14.8 mph /  23.8 km/h 14.8 mph /  23.8 km/h 26 % 0.0 in /  0 mm
17:02 31.0 °F /  -0.6 °C 9.2 °F /  -12.7 °C 1017.8 in /  34462.7 hPa South 11.1 mph /  17.9 km/h 11.1 mph /  17.9 km/h 26 % 0.0 in /  0 mm
17:07 31.3 °F /  -0.4 °C 9.5 °F /  -12.5 °C 1017.8 in /  34462.7 hPa South 9.3 mph /  15 km/h 9.3 mph /  15 km/h 26 % 0.0 in /  0 mm
17:12 30.9 °F /  -0.6 °C 9.2 °F /  -12.7 °C 1017.8 in /  34462.7 hPa South 13.0 mph /  20.9 km/h 13.0 mph /  20.9 km/h 26 % 0.0 in /  0 mm
17:17 30.4 °F /  -0.9 °C 8.7 °F /  -12.9 °C 1017.8 in /  34462.7 hPa SW 16.7 mph /  26.9 km/h 16.7 mph /  26.9 km/h 26 % 0.0 in /  0 mm
17:22 30.7 °F /  -0.7 °C 9.0 °F /  -12.8 °C 1017.8 in /  34462.7 hPa SW 9.3 mph /  15 km/h 9.3 mph /  15 km/h 26 % 0.0 in /  0 mm
17:27 30.0 °F /  -1.1 °C 8.4 °F /  -13.1 °C 1017.8 in /  34462.7 hPa SW 14.8 mph /  23.8 km/h 14.8 mph /  23.8 km/h 26 % 0.0 in /  0 mm
17:32 30.3 °F /  -0.9 °C 8.7 °F /  -12.9 °C 1017.8 in /  34462.7 hPa SW 13.0 mph /  20.9 km/h 13.0 mph /  20.9 km/h 26 % 0.0 in /  0 mm
17:37 30.0 °F /  -1.1 °C 8.4 °F /  -13.1 °C 1017.8 in /  34462.7 hPa SW 13.0 mph /  20.9 km/h 13.0 mph /  20.9 km/h 26 % 0.0 in /  0 mm
17:42 30.0 °F /  -1.1 °C 8.4 °F /  -13.1 °C 1017.8 in /  34462.7 hPa SSW 13.0 mph /  20.9 km/h 13.0 mph /  20.9 km/h 26 % 0.0 in /  0 mm
17:47 30.0 °F /  -1.1 °C 8.4 °F /  -13.1 °C 1017.8 in /  34462.7 hPa WSW 22.2 mph /  35.7 km/h 22.2 mph /  35.7 km/h 26 % 0.0 in /  0 mm
17:48 29.9 °F /  -1.2 °C 8.3 °F /  -13.2 °C 1017.8 in /  34462.7 hPa SW 14.8 mph /  23.8 km/h 14.8 mph /  23.8 km/h 26 % 0.0 in /  0 mm
17:53 29.6 °F /  -1.3 °C 8.1 °F /  -13.3 °C 1017.8 in /  34462.7 hPa South 20.4 mph /  32.8 km/h 20.4 mph /  32.8 km/h 26 % 0.0 in /  0 mm
17:58 29.3 °F /  -1.5 °C 7.8 °F /  -13.4 °C 1017.8 in /  34462.7 hPa SSW 20.4 mph /  32.8 km/h 20.4 mph /  32.8 km/h 26 % 0.0 in /  0 mm
18:03 29.2 °F /  -1.6 °C 7.7 °F /  -13.5 °C 1017.8 in /  34462.7 hPa SW 14.8 mph /  23.8 km/h 14.8 mph /  23.8 km/h 26 % 0.0 in /  0 mm
18:08 29.3 °F /  -1.5 °C 7.8 °F /  -13.4 °C 1017.8 in /  34462.7 hPa SW 14.8 mph /  23.8 km/h 14.8 mph /  23.8 km/h 26 % 0.0 in /  0 mm
18:13 29.3 °F /  -1.5 °C 7.8 °F /  -13.4 °C 1017.8 in /  34462.7 hPa SSW 9.3 mph /  15 km/h 9.3 mph /  15 km/h 26 % 0.0 in /  0 mm
18:18 29.2 °F /  -1.6 °C 8.3 °F /  -13.2 °C 1017.8 in /  34462.7 hPa SSW 9.3 mph /  15 km/h 9.3 mph /  15 km/h 27 % 0.0 in /  0 mm
18:23 29.2 °F /  -1.6 °C 8.3 °F /  -13.2 °C 1017.8 in /  34462.7 hPa SW 16.7 mph /  26.9 km/h 16.7 mph /  26.9 km/h 27 % 0.0 in /  0 mm
18:28 28.6 °F /  -1.9 °C 7.8 °F /  -13.4 °C 1017.8 in /  34462.7 hPa SSW 20.4 mph /  32.8 km/h 20.4 mph /  32.8 km/h 27 % 0.0 in /  0 mm
18:33 28.4 °F /  -2 °C 8.1 °F /  -13.3 °C 1017.8 in /  34462.7 hPa SW 14.8 mph /  23.8 km/h 14.8 mph /  23.8 km/h 28 % 0.0 in /  0 mm
18:38 28.2 °F /  -2.1 °C 7.9 °F /  -13.4 °C 1017.8 in /  34462.7 hPa SSE 14.8 mph /  23.8 km/h 14.8 mph /  23.8 km/h 28 % 0.0 in /  0 mm
18:43 28.0 °F /  -2.2 °C 7.8 °F /  -13.4 °C 1017.8 in /  34462.7 hPa SSW 16.7 mph /  26.9 km/h 16.7 mph /  26.9 km/h 28 % 0.0 in /  0 mm
18:48 28.1 °F /  -2.2 °C 7.9 °F /  -13.4 °C 1017.8 in /  34462.7 hPa South 9.3 mph /  15 km/h 9.3 mph /  15 km/h 28 % 0.0 in /  0 mm
18:53 28.0 °F /  -2.2 °C 7.8 °F /  -13.4 °C 1017.8 in /  34462.7 hPa SW 9.3 mph /  15 km/h 10.3 mph /  16.6 km/h 28 % 0.0 in /  0 mm
18:58 28.0 °F /  -2.2 °C 7.8 °F /  -13.4 °C 1018.8 in /  34496.6 hPa SSW 8.7 mph /  14 km/h 8.7 mph /  14 km/h 28 % 0.0 in /  0 mm
19:03 27.7 °F /  -2.4 °C 7.6 °F /  -13.6 °C 1018.8 in /  34496.6 hPa SSW 9.3 mph /  15 km/h 9.3 mph /  15 km/h 28 % 0.0 in /  0 mm
19:08 27.7 °F /  -2.4 °C 7.6 °F /  -13.6 °C 1018.8 in /  34496.6 hPa West 3.7 mph /  6 km/h 3.7 mph /  6 km/h 28 % 0.0 in /  0 mm
19:10 20.5 °F /  -6.4 °C 11.2 °F /  -11.6 °C 1021.9 in /  34601.5 hPa NE 3.2 mph /  5.1 km/h 3.2 mph /  5.1 km/h 55 % 0.0 in /  0 mm
19:13 27.4 °F /  -2.6 °C 7.3 °F /  -13.7 °C 1018.8 in /  34496.6 hPa SSW 7.4 mph /  11.9 km/h 7.4 mph /  11.9 km/h 28 % 0.0 in /  0 mm
19:18 27.8 °F /  -2.3 °C 7.6 °F /  -13.6 °C 1018.8 in /  34496.6 hPa SW 7.4 mph /  11.9 km/h 7.4 mph /  11.9 km/h 28 % 0.0 in /  0 mm
19:20 20.4 °F /  -6.4 °C 11.1 °F /  -11.6 °C 1020.9 in /  34567.7 hPa NE 1.6 mph /  2.6 km/h 4.8 mph /  7.7 km/h 55 % 0.0 in /  0 mm
19:23 27.6 °F /  -2.4 °C 7.4 °F /  -13.7 °C 1018.8 in /  34496.6 hPa South 5.6 mph /  9 km/h 5.6 mph /  9 km/h 28 % 0.0 in /  0 mm
19:28 27.5 °F /  -2.5 °C 7.3 °F /  -13.7 °C 1018.8 in /  34496.6 hPa SSW 11.4 mph /  18.3 km/h 11.4 mph /  18.3 km/h 28 % 0.0 in /  0 mm
19:30 20.3 °F /  -6.5 °C 11.2 °F /  -11.6 °C 1021.9 in /  34601.5 hPa NE 1.6 mph /  2.6 km/h 3.2 mph /  5.1 km/h 56 % 0.0 in /  0 mm
19:33 27.2 °F /  -2.7 °C 7.1 °F /  -13.8 °C 1018.8 in /  34496.6 hPa SW 5.6 mph /  9 km/h 5.6 mph /  9 km/h 28 % 0.0 in /  0 mm
19:38 27.3 °F /  -2.6 °C 7.2 °F /  -13.8 °C 1018.8 in /  34496.6 hPa SW 6.4 mph /  10.3 km/h 6.4 mph /  10.3 km/h 28 % 0.0 in /  0 mm
19:40 20.3 °F /  -6.5 °C 11.2 °F /  -11.6 °C 1021.9 in /  34601.5 hPa NE 1.6 mph /  2.6 km/h 3.2 mph /  5.1 km/h 56 % 0.0 in /  0 mm
19:43 27.2 °F /  -2.7 °C 7.1 °F /  -13.8 °C 1018.8 in /  34496.6 hPa SSE 7.4 mph /  11.9 km/h 7.4 mph /  11.9 km/h 28 % 0.0 in /  0 mm
19:48 27.0 °F /  -2.8 °C 6.9 °F /  -13.9 °C 1018.8 in /  34496.6 hPa SW 9.3 mph /  15 km/h 9.3 mph /  15 km/h 28 % 0.0 in /  0 mm
19:50 20.2 °F /  -6.6 °C 11.1 °F /  -11.6 °C 1020.9 in /  34567.7 hPa NE 1.6 mph /  2.6 km/h 4.8 mph /  7.7 km/h 56 % 0.0 in /  0 mm
19:53 26.8 °F /  -2.9 °C 6.8 °F /  -14 °C 1018.8 in /  34496.6 hPa West 7.4 mph /  11.9 km/h 7.4 mph /  11.9 km/h 28 % 0.0 in /  0 mm
19:58 26.8 °F /  -2.9 °C 6.8 °F /  -14 °C 1018.8 in /  34496.6 hPa West 3.9 mph /  6.3 km/h 3.9 mph /  6.3 km/h 28 % 0.0 in /  0 mm
20:00 20.0 °F /  -6.7 °C 11.2 °F /  -11.6 °C 1020.9 in /  34567.7 hPa NNE 1.6 mph /  2.6 km/h 3.2 mph /  5.1 km/h 57 % 0.0 in /  0 mm
20:03 26.6 °F /  -3 °C 6.6 °F /  -14.1 °C 1018.8 in /  34496.6 hPa SSW 9.3 mph /  15 km/h 9.3 mph /  15 km/h 28 % 0.0 in /  0 mm
20:08 26.4 °F /  -3.1 °C 6.9 °F /  -13.9 °C 1018.8 in /  34496.6 hPa SW 9.3 mph /  15 km/h 9.3 mph /  15 km/h 29 % 0.0 in /  0 mm
20:10 19.9 °F /  -6.7 °C 11.4 °F /  -11.4 °C 1020.9 in /  34567.7 hPa NE 1.6 mph /  2.6 km/h 4.8 mph /  7.7 km/h 58 % 0.0 in /  0 mm
20:13 26.4 °F /  -3.1 °C 6.9 °F /  -13.9 °C 1018.8 in /  34496.6 hPa SSW 7.4 mph /  11.9 km/h 7.4 mph /  11.9 km/h 29 % 0.0 in /  0 mm
20:18 26.2 °F /  -3.2 °C 6.8 °F /  -14 °C 1018.8 in /  34496.6 hPa SSW 13.0 mph /  20.9 km/h 13.0 mph /  20.9 km/h 29 % 0.0 in /  0 mm
20:20 19.8 °F /  -6.8 °C 11.6 °F /  -11.3 °C 1021.9 in /  34601.5 hPa Calm   3.2 mph /  5.1 km/h 59 % 0.0 in /  0 mm
20:23 26.0 °F /  -3.3 °C 6.6 °F /  -14.1 °C 1018.8 in /  34496.6 hPa SW 4.7 mph /  7.6 km/h 4.7 mph /  7.6 km/h 29 % 0.0 in /  0 mm
20:28 25.8 °F /  -3.4 °C 6.4 °F /  -14.2 °C 1018.8 in /  34496.6 hPa WSW 5.8 mph /  9.3 km/h 5.8 mph /  9.3 km/h 29 % 0.0 in /  0 mm
20:30 19.8 °F /  -6.8 °C 11.6 °F /  -11.3 °C 1021.9 in /  34601.5 hPa ENE 3.2 mph /  5.1 km/h 3.2 mph /  5.1 km/h 59 % 0.0 in /  0 mm
20:33 25.7 °F /  -3.5 °C 6.3 °F /  -14.3 °C 1018.8 in /  34496.6 hPa South 9.3 mph /  15 km/h 9.3 mph /  15 km/h 29 % 0.0 in /  0 mm
20:38 25.4 °F /  -3.7 °C 6.1 °F /  -14.4 °C 1018.8 in /  34496.6 hPa SSW 7.4 mph /  11.9 km/h 7.4 mph /  11.9 km/h 29 % 0.0 in /  0 mm
20:40 19.7 °F /  -6.8 °C 11.4 °F /  -11.4 °C 1021.9 in /  34601.5 hPa ENE 1.6 mph /  2.6 km/h 3.2 mph /  5.1 km/h 59 % 0.0 in /  0 mm
20:43 25.3 °F /  -3.7 °C 6.0 °F /  -14.4 °C 1018.8 in /  34496.6 hPa SW 4.2 mph /  6.8 km/h 4.2 mph /  6.8 km/h 29 % 0.0 in /  0 mm
20:48 25.2 °F /  -3.8 °C 5.9 °F /  -14.5 °C 1018.8 in /  34496.6 hPa SW 7.4 mph /  11.9 km/h 7.4 mph /  11.9 km/h 29 % 0.0 in /  0 mm
20:50 19.6 °F /  -6.9 °C 11.4 °F /  -11.4 °C 1020.9 in /  34567.7 hPa NE 1.6 mph /  2.6 km/h 3.2 mph /  5.1 km/h 59 % 0.0 in /  0 mm
20:53 25.0 °F /  -3.9 °C 6.2 °F /  -14.3 °C 1018.8 in /  34496.6 hPa WSW 5.6 mph /  9 km/h 5.6 mph /  9 km/h 30 % 0.0 in /  0 mm
20:58 24.8 °F /  -4 °C 6.5 °F /  -14.2 °C 1019.9 in /  34533.8 hPa SW 6.1 mph /  9.8 km/h 6.1 mph /  9.8 km/h 31 % 0.0 in /  0 mm
21:00 19.5 °F /  -6.9 °C 11.3 °F /  -11.5 °C 1020.9 in /  34567.7 hPa NE 1.6 mph /  2.6 km/h 3.2 mph /  5.1 km/h 59 % 0.0 in /  0 mm
21:03 24.6 °F /  -4.1 °C 6.3 °F /  -14.3 °C 1019.9 in /  34533.8 hPa WSW 7.4 mph /  11.9 km/h 7.4 mph /  11.9 km/h 31 % 0.0 in /  0 mm
21:08 24.4 °F /  -4.2 °C 6.2 °F /  -14.3 °C 1019.9 in /  34533.8 hPa SW 7.4 mph /  11.9 km/h 7.4 mph /  11.9 km/h 31 % 0.0 in /  0 mm
21:10 19.4 °F /  -7 °C 11.4 °F /  -11.4 °C 1020.9 in /  34567.7 hPa NE 1.6 mph /  2.6 km/h 3.2 mph /  5.1 km/h 60 % 0.0 in /  0 mm
21:13 24.2 °F /  -4.3 °C 6.4 °F /  -14.2 °C 1019.9 in /  34533.8 hPa SW 7.4 mph /  11.9 km/h 7.4 mph /  11.9 km/h 32 % 0.0 in /  0 mm
21:18 24.1 °F /  -4.4 °C 6.4 °F /  -14.2 °C 1019.9 in /  34533.8 hPa WSW 5.6 mph /  9 km/h 5.6 mph /  9 km/h 32 % 0.0 in /  0 mm
21:20 19.3 °F /  -7.1 °C 11.6 °F /  -11.3 °C 1020.9 in /  34567.7 hPa NE 1.6 mph /  2.6 km/h 1.6 mph /  2.6 km/h 61 % 0.0 in /  0 mm
21:23 23.9 °F /  -4.5 °C 6.2 °F /  -14.3 °C 1019.9 in /  34533.8 hPa SSW 4.2 mph /  6.8 km/h 4.2 mph /  6.8 km/h 32 % 0.0 in /  0 mm
21:28 23.8 °F /  -4.6 °C 6.6 °F /  -14.1 °C 1019.9 in /  34533.8 hPa West 7.4 mph /  11.9 km/h 7.4 mph /  11.9 km/h 33 % 0.0 in /  0 mm
21:30 19.0 °F /  -7.2 °C 11.1 °F /  -11.6 °C 1020.9 in /  34567.7 hPa Calm     60 % 0.0 in /  0 mm
21:33 23.6 °F /  -4.7 °C 6.4 °F /  -14.2 °C 1019.9 in /  34533.8 hPa West 5.6 mph /  9 km/h 5.6 mph /  9 km/h 33 % 0.0 in /  0 mm
21:38 23.4 °F /  -4.8 °C 6.2 °F /  -14.3 °C 1019.9 in /  34533.8 hPa SW 3.9 mph /  6.3 km/h 3.9 mph /  6.3 km/h 33 % 0.0 in /  0 mm
21:40 18.7 °F /  -7.4 °C 11.3 °F /  -11.5 °C 1020.9 in /  34567.7 hPa Calm   3.2 mph /  5.1 km/h 62 % 0.0 in /  0 mm
21:43 23.2 °F /  -4.9 °C 6.4 °F /  -14.2 °C 1019.9 in /  34533.8 hPa SW 3.7 mph /  6 km/h 3.7 mph /  6 km/h 34 % 0.0 in /  0 mm
21:48 23.1 °F /  -4.9 °C 6.4 °F /  -14.2 °C 1019.9 in /  34533.8 hPa WSW 3.7 mph /  6 km/h 3.7 mph /  6 km/h 34 % 0.0 in /  0 mm
21:50 18.6 °F /  -7.4 °C 11.4 °F /  -11.4 °C 1020.9 in /  34567.7 hPa Calm     63 % 0.0 in /  0 mm
21:53 22.9 °F /  -5.1 °C 7.1 °F /  -13.8 °C 1019.9 in /  34533.8 hPa SW 2.6 mph /  4.2 km/h   36 % 0.0 in /  0 mm
21:58 22.7 °F /  -5.2 °C 7.3 °F /  -13.7 °C 1019.9 in /  34533.8 hPa SW 3.7 mph /  6 km/h 3.7 mph /  6 km/h 37 % 0.0 in /  0 mm
22:00 18.4 °F /  -7.6 °C 11.2 °F /  -11.6 °C 1020.9 in /  34567.7 hPa Calm     63 % 0.0 in /  0 mm
22:03 22.6 °F /  -5.2 °C 7.2 °F /  -13.8 °C 1019.9 in /  34533.8 hPa Calm     37 % 0.0 in /  0 mm
22:08 22.4 °F /  -5.3 °C 7.4 °F /  -13.7 °C 1019.9 in /  34533.8 hPa SSE 1.9 mph /  3.1 km/h 1.9 mph /  3.1 km/h 38 % 0.0 in /  0 mm
22:10 18.1 °F /  -7.7 °C 10.9 °F /  -11.7 °C 1020.9 in /  34567.7 hPa Calm   3.2 mph /  5.1 km/h 63 % 0.0 in /  0 mm
22:13 22.3 °F /  -5.4 °C 7.3 °F /  -13.7 °C 1019.9 in /  34533.8 hPa Calm     38 % 0.0 in /  0 mm
22:18 22.3 °F /  -5.4 °C 7.3 °F /  -13.7 °C 1019.9 in /  34533.8 hPa WNW 1.9 mph /  3.1 km/h   38 % 0.0 in /  0 mm
22:20 17.9 °F /  -7.8 °C 11.0 °F /  -11.7 °C 1020.9 in /  34567.7 hPa Calm     64 % 0.0 in /  0 mm
22:23 22.3 °F /  -5.4 °C 7.7 °F /  -13.5 °C 1019.9 in /  34533.8 hPa NE 7.4 mph /  11.9 km/h 7.4 mph /  11.9 km/h 39 % 0.0 in /  0 mm
22:28 22.3 °F /  -5.4 °C 8.4 °F /  -13.1 °C 1020.9 in /  34567.7 hPa NNE 5.6 mph /  9 km/h 5.6 mph /  9 km/h 41 % 0.0 in /  0 mm
22:30 17.9 °F /  -7.8 °C 11.0 °F /  -11.7 °C 1020.9 in /  34567.7 hPa Calm     64 % 0.0 in /  0 mm
22:33 22.1 °F /  -5.5 °C 8.6 °F /  -13 °C 1020.9 in /  34567.7 hPa North 3.7 mph /  6 km/h 3.7 mph /  6 km/h 42 % 0.0 in /  0 mm
22:38 22.0 °F /  -5.6 °C 9.2 °F /  -12.7 °C 1020.9 in /  34567.7 hPa East 5.6 mph /  9 km/h 5.6 mph /  9 km/h 44 % 0.0 in /  0 mm
22:40 17.8 °F /  -7.9 °C 10.9 °F /  -11.7 °C 1020.9 in /  34567.7 hPa Calm     64 % 0.0 in /  0 mm
22:43 21.8 °F /  -5.7 °C 9.7 °F /  -12.4 °C 1020.9 in /  34567.7 hPa ENE 3.7 mph /  6 km/h 3.7 mph /  6 km/h 46 % 0.0 in /  0 mm
22:48 21.7 °F /  -5.7 °C 9.9 °F /  -12.3 °C 1020.9 in /  34567.7 hPa NE 3.9 mph /  6.3 km/h 3.9 mph /  6.3 km/h 47 % 0.0 in /  0 mm
22:53 21.5 °F /  -5.8 °C 10.0 °F /  -12.2 °C 1020.9 in /  34567.7 hPa ENE 5.6 mph /  9 km/h 5.6 mph /  9 km/h 48 % 0.0 in /  0 mm
22:58 21.4 °F /  -5.9 °C 9.9 °F /  -12.3 °C 1020.9 in /  34567.7 hPa East 3.7 mph /  6 km/h 3.7 mph /  6 km/h 48 % 0.0 in /  0 mm
23:00 17.6 °F /  -8 °C 10.7 °F /  -11.8 °C 1019.9 in /  34533.8 hPa NE 3.2 mph /  5.1 km/h 3.2 mph /  5.1 km/h 64 % 0.0 in /  0 mm
23:03 21.3 °F /  -5.9 °C 10.2 °F /  -12.1 °C 1020.9 in /  34567.7 hPa East 3.7 mph /  6 km/h 3.7 mph /  6 km/h 49 % 0.0 in /  0 mm
23:08 21.3 °F /  -5.9 °C 10.4 °F /  -12 °C 1020.9 in /  34567.7 hPa ENE 3.7 mph /  6 km/h 3.7 mph /  6 km/h 50 % 0.0 in /  0 mm
23:10 17.5 °F /  -8.1 °C 10.8 °F /  -11.8 °C 1019.9 in /  34533.8 hPa Calm   3.2 mph /  5.1 km/h 65 % 0.0 in /  0 mm
23:13 21.2 °F /  -6 °C 10.3 °F /  -12.1 °C 1020.9 in /  34567.7 hPa ENE 3.2 mph /  5.1 km/h 3.2 mph /  5.1 km/h 50 % 0.0 in /  0 mm
23:18 21.1 °F /  -6.1 °C 10.6 °F /  -11.9 °C 1020.9 in /  34567.7 hPa East 5.6 mph /  9 km/h 5.6 mph /  9 km/h 51 % 0.0 in /  0 mm
23:20 17.4 °F /  -8.1 °C 10.7 °F /  -11.8 °C 1020.9 in /  34567.7 hPa Calm   3.2 mph /  5.1 km/h 65 % 0.0 in /  0 mm
23:23 21.1 °F /  -6.1 °C 10.6 °F /  -11.9 °C 1020.9 in /  34567.7 hPa ENE 3.7 mph /  6 km/h 3.7 mph /  6 km/h 51 % 0.0 in /  0 mm
23:28 20.9 °F /  -6.2 °C 10.7 °F /  -11.8 °C 1020.9 in /  34567.7 hPa NNE 3.7 mph /  6 km/h 3.7 mph /  6 km/h 52 % 0.0 in /  0 mm
23:30 17.2 °F /  -8.2 °C 10.6 °F /  -11.9 °C 1019.9 in /  34533.8 hPa Calm   1.6 mph /  2.6 km/h 65 % 0.0 in /  0 mm
23:33 20.9 °F /  -6.2 °C 10.9 °F /  -11.7 °C 1020.9 in /  34567.7 hPa ENE 5.3 mph /  8.5 km/h 5.3 mph /  8.5 km/h 53 % 0.0 in /  0 mm
23:38 20.8 °F /  -6.2 °C 10.9 °F /  -11.7 °C 1020.9 in /  34567.7 hPa NE 3.7 mph /  6 km/h 3.7 mph /  6 km/h 53 % 0.0 in /  0 mm
23:40 17.0 °F /  -8.3 °C 10.6 °F /  -11.9 °C 1019.9 in /  34533.8 hPa Calm     66 % 0.0 in /  0 mm
23:43 20.7 °F /  -6.3 °C 10.8 °F /  -11.8 °C 1020.9 in /  34567.7 hPa NE 3.7 mph /  6 km/h 3.7 mph /  6 km/h 53 % 0.0 in /  0 mm
23:48 20.7 °F /  -6.3 °C 10.8 °F /  -11.8 °C 1020.9 in /  34567.7 hPa ENE 3.2 mph /  5.1 km/h 3.2 mph /  5.1 km/h 53 % 0.0 in /  0 mm
23:50 16.9 °F /  -8.4 °C 10.9 °F /  -11.7 °C 1020.9 in /  34567.7 hPa Calm   1.6 mph /  2.6 km/h 68 % 0.0 in /  0 mm
23:53 20.6 °F /  -6.3 °C 10.9 °F /  -11.7 °C 1020.9 in /  34567.7 hPa NNE 3.7 mph /  6 km/h 3.7 mph /  6 km/h 54 % 0.0 in /  0 mm
23:58 20.6 °F /  -6.3 °C 10.9 °F /  -11.7 °C 1021.9 in /  34601.5 hPa NE 3.7 mph /  6 km/h 3.7 mph /  6 km/h 54 % 0.0 in /  0 mm
Meteo Sesrovires
Elogis d' Weather Underground - 2 mb

Guio original per  Jim McMurry - jmcmurry@mwt.net Adaptat per a la plantilla per  Wim van der Kuil - Leuven-Template.eu

Trobareu la nostra informacio del temps tambe a:

Weather Underground

AWEKAS